createdAt,value
2023-03-26T00:00:54.059Z,2.35
2023-03-26T00:03:20.368Z,2.10
2023-03-26T00:05:46.747Z,2.13
2023-03-26T00:08:13.093Z,2.02
2023-03-26T00:10:39.420Z,2.07
2023-03-26T00:13:05.744Z,2.10
2023-03-26T00:15:32.056Z,2.08
2023-03-26T00:17:58.437Z,2.00
2023-03-26T00:20:24.778Z,2.14
2023-03-26T00:22:51.096Z,2.14
2023-03-26T00:25:17.432Z,2.35
2023-03-26T00:27:43.763Z,2.22
2023-03-26T00:30:10.072Z,2.03
2023-03-26T00:32:36.421Z,2.32
2023-03-26T00:35:02.790Z,2.14
2023-03-26T00:37:29.126Z,2.14
2023-03-26T00:39:55.455Z,2.11
2023-03-26T00:42:27.277Z,1.95
2023-03-26T00:44:53.594Z,1.93
2023-03-26T00:47:19.946Z,1.83
2023-03-26T00:49:46.256Z,1.77
2023-03-26T00:52:12.564Z,1.85
2023-03-26T00:54:38.884Z,1.96
2023-03-26T00:57:05.238Z,1.84
2023-03-26T00:59:31.564Z,1.85
2023-03-26T01:01:57.941Z,2.00
2023-03-26T01:04:24.527Z,1.88
2023-03-26T01:06:50.957Z,2.03
2023-03-26T01:09:17.324Z,1.92
2023-03-26T01:11:43.674Z,1.64
2023-03-26T01:14:09.979Z,1.87
2023-03-26T01:16:36.295Z,1.89
2023-03-26T01:19:02.630Z,1.95
2023-03-26T01:21:28.940Z,1.86
2023-03-26T01:23:55.246Z,1.98
2023-03-26T01:26:21.549Z,1.89
2023-03-26T01:28:47.903Z,1.72
2023-03-26T01:31:14.218Z,1.93
2023-03-26T01:33:40.590Z,2.02
2023-03-26T01:36:07.120Z,1.69
2023-03-26T01:38:33.467Z,1.97
2023-03-26T01:40:59.776Z,2.20
2023-03-26T01:43:26.108Z,1.94
2023-03-26T01:45:52.688Z,2.01
2023-03-26T01:48:19.177Z,1.92
2023-03-26T01:50:45.509Z,2.17
2023-03-26T01:53:11.827Z,2.06
2023-03-26T01:55:38.157Z,2.16
2023-03-26T01:58:04.458Z,2.07
2023-03-26T02:00:30.760Z,2.31
2023-03-26T02:02:57.191Z,2.12
2023-03-26T02:05:23.577Z,2.05
2023-03-26T02:07:49.877Z,2.19
2023-03-26T02:10:16.174Z,1.92
2023-03-26T02:12:42.494Z,2.26
2023-03-26T02:15:08.826Z,2.02
2023-03-26T02:17:35.201Z,2.24
2023-03-26T02:20:01.531Z,2.20
2023-03-26T02:22:27.829Z,2.34
2023-03-26T02:24:54.132Z,2.22
2023-03-26T02:27:20.497Z,2.21
2023-03-26T02:29:46.834Z,2.13
2023-03-26T02:32:13.145Z,1.99
2023-03-26T02:34:39.450Z,2.04
2023-03-26T02:37:05.771Z,2.09
2023-03-26T02:39:32.110Z,1.99
2023-03-26T02:41:58.423Z,2.02
2023-03-26T02:44:24.734Z,1.97
2023-03-26T02:46:51.060Z,2.14
2023-03-26T02:49:17.387Z,2.11
2023-03-26T02:51:43.709Z,2.09
2023-03-26T02:54:10.043Z,2.00
2023-03-26T02:56:36.363Z,1.87
2023-03-26T02:59:02.701Z,1.81
2023-03-26T03:01:29.083Z,1.87
2023-03-26T03:03:55.390Z,1.83
2023-03-26T03:06:21.698Z,1.78
2023-03-26T03:08:48.005Z,1.71
2023-03-26T03:11:14.788Z,1.78
2023-03-26T03:13:41.292Z,1.59
2023-03-26T03:16:07.610Z,1.83
2023-03-26T03:18:33.948Z,1.74
2023-03-26T03:21:00.293Z,1.63
2023-03-26T03:23:26.612Z,1.61
2023-03-26T03:25:53.132Z,1.84
2023-03-26T03:28:19.861Z,1.82
2023-03-26T03:30:46.222Z,1.82
2023-03-26T03:33:12.544Z,1.71
2023-03-26T03:35:38.895Z,1.76
2023-03-26T03:38:05.267Z,1.71
2023-03-26T03:40:31.594Z,1.70
2023-03-26T03:42:57.925Z,1.67
2023-03-26T03:45:24.257Z,1.74
2023-03-26T03:47:50.589Z,1.59
2023-03-26T03:50:16.972Z,1.70
2023-03-26T03:52:43.284Z,1.68
2023-03-26T03:55:09.589Z,1.49
2023-03-26T03:57:35.898Z,1.60
2023-03-26T04:00:03.134Z,1.47
2023-03-26T04:02:30.483Z,1.48
2023-03-26T04:04:56.909Z,1.45
2023-03-26T04:07:23.228Z,1.43
2023-03-26T04:09:49.533Z,1.44
2023-03-26T04:12:15.844Z,1.41
2023-03-26T04:14:42.181Z,1.43
2023-03-26T04:17:08.482Z,1.45
2023-03-26T04:19:34.788Z,1.44
2023-03-26T04:22:01.124Z,1.44
2023-03-26T04:24:27.430Z,1.40
2023-03-26T04:26:53.737Z,1.25
2023-03-26T04:29:20.141Z,1.31
2023-03-26T04:31:46.479Z,1.37
2023-03-26T04:34:12.888Z,1.27
2023-03-26T04:36:39.204Z,1.42
2023-03-26T04:39:05.541Z,1.38
2023-03-26T04:41:31.870Z,1.32
2023-03-26T04:43:58.195Z,1.16
2023-03-26T04:46:24.552Z,1.27
2023-03-26T04:48:50.908Z,1.25
2023-03-26T04:51:17.248Z,1.37
2023-03-26T04:53:43.546Z,1.22
2023-03-26T04:56:09.845Z,1.45
2023-03-26T04:58:36.152Z,1.31
2023-03-26T05:01:09.787Z,1.25
2023-03-26T05:03:36.911Z,1.33
2023-03-26T05:06:03.225Z,1.25
2023-03-26T05:08:29.706Z,1.21
2023-03-26T05:10:56.239Z,1.24
2023-03-26T05:13:22.728Z,1.17
2023-03-26T05:15:49.048Z,1.23
2023-03-26T05:18:15.348Z,1.37
2023-03-26T05:20:41.648Z,1.28
2023-03-26T05:23:07.990Z,1.34
2023-03-26T05:25:34.316Z,1.19
2023-03-26T05:28:00.618Z,1.18
2023-03-26T05:30:26.947Z,1.28
2023-03-26T05:32:53.324Z,1.25
2023-03-26T05:35:19.796Z,1.28
2023-03-26T05:37:46.154Z,1.11
2023-03-26T05:40:12.452Z,1.25
2023-03-26T05:42:38.777Z,1.29
2023-03-26T05:45:05.104Z,1.36
2023-03-26T05:47:31.511Z,1.18
2023-03-26T05:49:57.884Z,1.28
2023-03-26T05:52:24.216Z,1.29
2023-03-26T05:54:50.532Z,1.29
2023-03-26T05:57:16.897Z,1.44
2023-03-26T05:59:43.220Z,1.32
2023-03-26T06:02:09.546Z,1.31
2023-03-26T06:04:35.976Z,1.35
2023-03-26T06:07:02.399Z,1.29
2023-03-26T06:09:28.712Z,1.42
2023-03-26T06:11:55.013Z,1.25
2023-03-26T06:14:21.327Z,1.30
2023-03-26T06:16:47.653Z,1.32
2023-03-26T06:19:13.996Z,1.23
2023-03-26T06:21:40.340Z,1.31
2023-03-26T06:24:06.652Z,1.22
2023-03-26T06:26:32.983Z,1.22
2023-03-26T06:28:59.305Z,1.27
2023-03-26T06:31:25.712Z,1.23
2023-03-26T06:33:52.041Z,1.23
2023-03-26T06:36:18.388Z,1.12
2023-03-26T06:38:44.758Z,1.18
2023-03-26T06:41:11.076Z,1.16
2023-03-26T06:43:37.477Z,1.15
2023-03-26T06:46:03.965Z,1.21
2023-03-26T06:48:30.376Z,1.23
2023-03-26T06:50:56.712Z,1.26
2023-03-26T06:53:23.048Z,1.28
2023-03-26T06:55:49.376Z,1.43
2023-03-26T06:58:15.712Z,1.48
2023-03-26T07:00:42.034Z,1.39
2023-03-26T07:03:08.384Z,1.33
2023-03-26T07:05:34.708Z,1.48
2023-03-26T07:08:01.011Z,1.56
2023-03-26T07:10:27.329Z,1.49
2023-03-26T07:12:53.657Z,1.34
2023-03-26T07:15:19.965Z,1.44
2023-03-26T07:17:46.304Z,1.36
2023-03-26T07:20:12.623Z,1.50
2023-03-26T07:22:38.933Z,1.52
2023-03-26T07:25:05.230Z,1.45
2023-03-26T07:27:31.543Z,1.44
2023-03-26T07:29:57.860Z,1.38
2023-03-26T07:32:24.215Z,1.48
2023-03-26T07:34:50.556Z,1.41
2023-03-26T07:37:16.868Z,1.53
2023-03-26T07:39:43.187Z,1.47
2023-03-26T07:42:09.510Z,1.64
2023-03-26T07:44:36.024Z,1.43
2023-03-26T07:47:02.377Z,1.40
2023-03-26T07:49:28.692Z,1.54
2023-03-26T07:51:55.020Z,1.64
2023-03-26T07:54:21.327Z,1.56
2023-03-26T07:56:47.682Z,1.64
2023-03-26T07:59:14.017Z,1.64
2023-03-26T08:01:40.329Z,1.51
2023-03-26T08:04:23.772Z,1.73
2023-03-26T08:06:52.679Z,1.53
2023-03-26T08:09:19.011Z,1.64
2023-03-26T08:11:45.376Z,1.51
2023-03-26T08:14:11.713Z,1.68
2023-03-26T08:16:38.026Z,1.72
2023-03-26T08:19:04.325Z,1.88
2023-03-26T08:21:30.641Z,1.60
2023-03-26T08:23:56.991Z,1.73
2023-03-26T08:26:23.306Z,1.77
2023-03-26T08:28:49.626Z,1.77
2023-03-26T08:31:15.970Z,1.83
2023-03-26T08:33:42.341Z,1.98
2023-03-26T08:36:08.649Z,1.80
2023-03-26T08:38:34.971Z,1.91
2023-03-26T08:41:01.284Z,1.88
2023-03-26T08:43:27.586Z,1.94
2023-03-26T08:45:53.906Z,1.77
2023-03-26T08:48:20.232Z,1.93
2023-03-26T08:50:46.569Z,1.91
2023-03-26T08:53:12.889Z,1.60
2023-03-26T08:55:39.228Z,1.84
2023-03-26T08:58:05.548Z,1.68
2023-03-26T09:00:31.864Z,1.71
2023-03-26T09:02:58.237Z,1.50
2023-03-26T09:05:24.605Z,1.75
2023-03-26T09:07:50.930Z,1.65
2023-03-26T09:10:17.238Z,1.48
2023-03-26T09:12:43.570Z,1.78
2023-03-26T09:15:09.891Z,1.66
2023-03-26T09:17:36.223Z,1.70
2023-03-26T09:20:02.576Z,1.80
2023-03-26T09:22:28.923Z,1.91
2023-03-26T09:24:55.235Z,1.79
2023-03-26T09:27:21.573Z,1.68
2023-03-26T09:29:47.888Z,1.61
2023-03-26T09:32:14.198Z,1.56
2023-03-26T09:34:40.522Z,1.47
2023-03-26T09:37:06.854Z,1.55
2023-03-26T09:39:33.166Z,1.50
2023-03-26T09:41:59.479Z,1.52
2023-03-26T09:44:25.801Z,1.40
2023-03-26T09:46:52.133Z,1.30
2023-03-26T09:49:18.478Z,1.34
2023-03-26T09:51:44.793Z,1.40
2023-03-26T09:54:12.172Z,1.46
2023-03-26T09:56:39.615Z,1.76
2023-03-26T09:59:06.192Z,1.89
2023-03-26T10:01:32.519Z,1.58
2023-03-26T10:03:58.859Z,1.59
2023-03-26T10:06:25.195Z,1.52
2023-03-26T10:08:51.512Z,1.43
2023-03-26T10:11:17.855Z,1.48
2023-03-26T10:13:44.158Z,1.50
2023-03-26T10:16:10.599Z,1.52
2023-03-26T10:18:36.972Z,1.15
2023-03-26T10:21:03.315Z,1.27
2023-03-26T10:23:29.618Z,1.32
2023-03-26T10:25:55.924Z,1.26
2023-03-26T10:28:22.249Z,1.32
2023-03-26T10:30:48.602Z,1.10
2023-03-26T10:33:14.934Z,1.10
2023-03-26T10:35:41.264Z,1.17
2023-03-26T10:38:07.621Z,1.01
2023-03-26T10:40:33.930Z,0.91
2023-03-26T10:43:00.241Z,1.11
2023-03-26T10:45:26.555Z,1.21
2023-03-26T10:47:52.908Z,1.27
2023-03-26T10:50:23.666Z,1.18
2023-03-26T10:52:50.201Z,1.27
2023-03-26T10:55:16.515Z,1.40
2023-03-26T10:57:42.819Z,1.47
2023-03-26T11:00:09.128Z,1.37
2023-03-26T11:02:35.451Z,1.31
2023-03-26T11:05:01.753Z,1.22
2023-03-26T11:07:28.077Z,1.14
2023-03-26T11:09:54.398Z,1.12
2023-03-26T11:12:26.584Z,1.07
2023-03-26T11:14:54.569Z,1.43
2023-03-26T11:17:40.663Z,1.32
2023-03-26T11:20:07.160Z,1.25
2023-03-26T11:22:33.487Z,1.33
2023-03-26T11:24:59.818Z,1.32
2023-03-26T11:27:26.536Z,1.41
2023-03-26T11:29:52.948Z,1.35
2023-03-26T11:32:19.313Z,1.35
2023-03-26T11:34:45.971Z,1.42
2023-03-26T11:37:12.277Z,1.52
2023-03-26T11:39:38.600Z,1.32
2023-03-26T11:42:04.929Z,1.30
2023-03-26T11:44:31.250Z,1.28
2023-03-26T11:46:57.578Z,1.37
2023-03-26T11:49:23.946Z,1.40
2023-03-26T11:51:50.288Z,1.35
2023-03-26T11:54:16.608Z,1.27
2023-03-26T11:57:05.755Z,1.14
2023-03-26T11:59:29.217Z,1.03
2023-03-26T12:01:55.571Z,0.89
2023-03-26T12:04:21.891Z,1.02
2023-03-26T12:06:48.238Z,0.88
2023-03-26T12:09:14.534Z,0.95
2023-03-26T12:11:40.852Z,0.99
2023-03-26T12:14:07.156Z,0.88
2023-03-26T12:16:33.507Z,0.95
2023-03-26T12:18:59.866Z,0.90
2023-03-26T12:21:26.181Z,0.98
2023-03-26T12:23:52.547Z,1.03
2023-03-26T12:26:18.854Z,1.16
2023-03-26T12:28:45.168Z,1.03
2023-03-26T12:31:11.551Z,0.95
2023-03-26T12:33:37.922Z,0.84
2023-03-26T12:36:04.283Z,0.76
2023-03-26T12:38:30.622Z,0.81
2023-03-26T12:40:56.919Z,0.79
2023-03-26T12:44:49.665Z,0.63
2023-03-26T12:47:56.097Z,0.51
2023-03-26T12:48:55.901Z,0.54
2023-03-26T12:51:22.312Z,0.48
2023-03-26T12:53:48.640Z,0.53
2023-03-26T12:56:14.950Z,0.31
2023-03-26T12:58:41.283Z,0.33
2023-03-26T13:01:07.619Z,0.24
2023-03-26T13:03:33.971Z,0.22
2023-03-26T13:06:00.356Z,0.29
2023-03-26T13:08:26.701Z,0.22
2023-03-26T13:10:53.167Z,0.27
2023-03-26T13:13:19.533Z,0.32
2023-03-26T13:15:45.828Z,0.29
2023-03-26T13:18:12.135Z,0.28
2023-03-26T13:20:38.461Z,0.30
2023-03-26T13:23:04.782Z,0.27
2023-03-26T13:25:31.081Z,0.34
2023-03-26T13:27:57.399Z,0.38
2023-03-26T13:30:23.702Z,0.31
2023-03-26T13:32:50.036Z,0.37
2023-03-26T13:35:16.430Z,0.41
2023-03-26T13:37:42.768Z,0.40
2023-03-26T13:40:09.092Z,0.30
2023-03-26T13:42:35.432Z,0.40
2023-03-26T13:45:04.626Z,0.40
2023-03-26T13:47:32.283Z,0.41
2023-03-26T13:49:58.682Z,0.45
2023-03-26T13:52:25.022Z,0.38
2023-03-26T13:54:51.393Z,0.37
2023-03-26T13:57:17.736Z,0.35
2023-03-26T13:59:44.136Z,0.35
2023-03-26T14:02:10.441Z,0.38
2023-03-26T14:04:36.744Z,0.44
2023-03-26T14:07:03.054Z,0.42
2023-03-26T14:09:29.347Z,0.32
2023-03-26T14:11:55.647Z,0.54
2023-03-26T14:14:21.945Z,0.54
2023-03-26T14:16:48.252Z,0.53
2023-03-26T14:19:14.576Z,0.66
2023-03-26T14:21:40.888Z,0.69
2023-03-26T14:24:07.195Z,0.46
2023-03-26T14:26:33.489Z,0.53
2023-03-26T14:28:59.804Z,0.48
2023-03-26T14:31:26.153Z,0.48
2023-03-26T14:33:52.493Z,0.62
2023-03-26T14:36:18.848Z,0.53
2023-03-26T14:38:45.160Z,0.56
2023-03-26T14:43:46.787Z,0.60
2023-03-26T14:46:13.167Z,0.60
2023-03-26T14:48:39.589Z,0.66
2023-03-26T14:51:05.949Z,0.70
2023-03-26T14:53:32.282Z,0.66
2023-03-26T14:55:58.604Z,0.66
2023-03-26T14:58:24.909Z,0.57
2023-03-26T15:00:51.257Z,0.74
2023-03-26T15:03:17.660Z,0.79
2023-03-26T15:05:44.021Z,0.66
2023-03-26T15:08:10.346Z,0.77
2023-03-26T15:10:36.680Z,0.70
2023-03-26T15:13:02.996Z,0.69
2023-03-26T15:15:29.316Z,0.67
2023-03-26T15:17:55.704Z,0.72
2023-03-26T15:20:22.043Z,0.78
2023-03-26T15:22:48.374Z,0.68
2023-03-26T15:25:14.825Z,0.62
2023-03-26T15:27:41.263Z,0.53
2023-03-26T15:30:07.571Z,0.58
2023-03-26T15:32:33.944Z,0.52
2023-03-26T15:35:00.294Z,0.52
2023-03-26T15:37:26.618Z,0.66
2023-03-26T15:39:59.177Z,0.70
2023-03-26T15:42:26.677Z,0.63
2023-03-26T15:44:54.091Z,0.59
2023-03-26T15:47:20.807Z,0.71
2023-03-26T15:49:47.126Z,0.65
2023-03-26T15:52:13.449Z,0.77
2023-03-26T15:54:39.752Z,0.67
2023-03-26T15:57:06.129Z,0.61
2023-03-26T15:59:32.457Z,0.67
2023-03-26T16:01:58.788Z,0.59
2023-03-26T16:04:25.099Z,0.62
2023-03-26T16:06:51.445Z,0.66
2023-03-26T16:09:17.757Z,0.60
2023-03-26T16:11:44.062Z,0.54
2023-03-26T16:14:10.394Z,0.81
2023-03-26T16:16:36.696Z,0.85
2023-03-26T16:19:03.012Z,0.65
2023-03-26T16:21:31.410Z,0.66
2023-03-26T16:23:58.885Z,0.73
2023-03-26T16:26:25.201Z,0.73
2023-03-26T16:28:51.530Z,0.56
2023-03-26T16:31:36.820Z,0.73
2023-03-26T16:34:04.129Z,0.64
2023-03-26T16:36:30.432Z,0.66
2023-03-26T16:38:56.763Z,0.84
2023-03-26T16:41:23.062Z,0.72
2023-03-26T16:43:49.404Z,0.65
2023-03-26T16:46:15.752Z,0.58
2023-03-26T16:48:42.055Z,0.64
2023-03-26T16:51:08.394Z,0.69
2023-03-26T16:53:34.715Z,0.68
2023-03-26T16:56:01.058Z,0.69
2023-03-26T16:58:27.396Z,0.75
2023-03-26T17:00:53.964Z,0.75
2023-03-26T17:03:20.573Z,0.97
2023-03-26T17:05:47.021Z,0.83
2023-03-26T17:08:13.410Z,0.79
2023-03-26T17:10:39.749Z,0.95
2023-03-26T17:13:06.088Z,0.70
2023-03-26T17:15:32.412Z,0.80
2023-03-26T17:17:58.823Z,0.74
2023-03-26T17:20:25.196Z,0.72
2023-03-26T17:22:51.519Z,0.65
2023-03-26T17:25:17.831Z,0.71
2023-03-26T17:27:44.152Z,0.73
2023-03-26T17:30:10.781Z,0.82
2023-03-26T17:32:37.298Z,0.76
2023-03-26T17:35:07.995Z,0.85
2023-03-26T17:37:34.346Z,0.79
2023-03-26T17:40:00.670Z,0.81
2023-03-26T17:42:26.984Z,0.70
2023-03-26T17:44:53.322Z,0.76
2023-03-26T17:47:19.654Z,0.69
2023-03-26T17:49:45.988Z,0.75
2023-03-26T17:52:12.340Z,0.66
2023-03-26T17:54:38.654Z,0.66
2023-03-26T17:57:04.967Z,0.67
2023-03-26T17:59:31.320Z,0.61
2023-03-26T18:01:57.651Z,0.71
2023-03-26T18:04:24.007Z,0.67
2023-03-26T18:06:50.333Z,0.67
2023-03-26T18:09:16.633Z,0.63
2023-03-26T18:11:42.946Z,0.55
2023-03-26T18:14:09.262Z,0.58
2023-03-26T18:16:35.623Z,0.55
2023-03-26T18:19:01.935Z,0.73
2023-03-26T18:21:28.266Z,0.77
2023-03-26T18:23:54.590Z,0.77
2023-03-26T18:26:26.368Z,0.71
2023-03-26T18:28:52.692Z,0.71
2023-03-26T18:31:19.055Z,0.71
2023-03-26T18:33:45.507Z,0.68
2023-03-26T18:36:11.949Z,0.77
2023-03-26T18:38:40.018Z,0.79
2023-03-26T18:41:07.517Z,0.88
2023-03-26T18:43:35.223Z,0.82
2023-03-26T18:46:02.109Z,0.92
2023-03-26T18:48:28.457Z,0.86
2023-03-26T18:50:55.117Z,0.79
2023-03-26T18:53:21.676Z,0.89
2023-03-26T18:55:48.006Z,0.81
2023-03-26T18:58:14.321Z,0.67
2023-03-26T19:00:40.622Z,0.75
2023-03-26T19:03:07.028Z,0.68
2023-03-26T19:05:33.418Z,0.74
2023-03-26T19:07:59.730Z,0.77
2023-03-26T19:10:26.033Z,0.85
2023-03-26T19:12:52.347Z,0.68
2023-03-26T19:15:18.682Z,0.78
2023-03-26T19:17:45.056Z,0.77
2023-03-26T19:20:11.420Z,0.67
2023-03-26T19:22:37.729Z,0.74
2023-03-26T19:25:04.043Z,0.86
2023-03-26T19:27:30.368Z,0.78
2023-03-26T19:29:56.674Z,0.76
2023-03-26T19:32:23.023Z,0.82
2023-03-26T19:34:49.351Z,0.80
2023-03-26T19:37:15.679Z,0.78
2023-03-26T19:39:42.035Z,0.82
2023-03-26T19:42:08.349Z,0.81
2023-03-26T19:44:34.680Z,0.87
2023-03-26T19:47:01.027Z,0.81
2023-03-26T19:49:28.511Z,0.77
2023-03-26T19:51:54.997Z,0.78
2023-03-26T19:54:21.312Z,0.71
2023-03-26T19:56:47.695Z,0.86
2023-03-26T19:59:14.035Z,0.85
2023-03-26T20:01:40.378Z,0.84
2023-03-26T20:04:06.781Z,0.85
2023-03-26T20:06:43.056Z,0.88
2023-03-26T20:09:10.325Z,0.91
2023-03-26T20:11:36.687Z,0.90
2023-03-26T20:14:03.013Z,0.91
2023-03-26T20:16:29.415Z,0.85
2023-03-26T20:18:55.784Z,0.92
2023-03-26T20:21:22.118Z,0.94
2023-03-26T20:23:48.426Z,1.05
2023-03-26T20:26:14.734Z,1.05
2023-03-26T20:28:47.793Z,1.00
2023-03-26T20:31:15.079Z,0.86
2023-03-26T20:33:41.445Z,0.88
2023-03-26T20:36:07.787Z,0.68
2023-03-26T20:38:39.386Z,0.77
2023-03-26T20:41:06.393Z,0.83
2023-03-26T20:43:32.712Z,0.86
2023-03-26T20:45:59.007Z,0.79
2023-03-26T20:48:25.374Z,0.93
2023-03-26T20:50:51.700Z,0.75
2023-03-26T20:53:18.010Z,0.93
2023-03-26T20:55:44.310Z,0.90
2023-03-26T20:58:10.656Z,0.68
2023-03-26T21:00:36.987Z,0.82
2023-03-26T21:03:03.336Z,0.94
2023-03-26T21:05:29.674Z,1.08
2023-03-26T21:07:56.003Z,1.09
2023-03-26T21:10:22.295Z,1.12
2023-03-26T21:12:48.634Z,1.00
2023-03-26T21:15:23.074Z,0.88
2023-03-26T21:17:50.181Z,0.86
2023-03-26T21:20:16.546Z,1.05
2023-03-26T21:22:42.869Z,1.01
2023-03-26T21:25:09.242Z,1.05
2023-03-26T21:27:35.555Z,1.08
2023-03-26T21:30:01.859Z,0.96
2023-03-26T21:32:28.194Z,0.90
2023-03-26T21:37:23.757Z,0.85
2023-03-26T21:39:50.086Z,0.92
2023-03-26T21:42:16.428Z,1.07
2023-03-26T21:44:42.725Z,1.17
2023-03-26T21:47:09.903Z,1.12
2023-03-26T21:49:36.333Z,1.01
2023-03-26T21:52:02.653Z,1.02
2023-03-26T21:54:28.959Z,0.90
2023-03-26T21:56:55.330Z,0.93
2023-03-26T21:59:21.663Z,0.92
2023-03-26T22:01:48.025Z,0.98
2023-03-26T22:04:14.340Z,0.95
2023-03-26T22:06:40.661Z,1.00
2023-03-26T22:09:06.986Z,1.06
2023-03-26T22:11:33.297Z,0.91
2023-03-26T22:13:59.630Z,0.94
2023-03-26T22:16:25.985Z,0.93
2023-03-26T22:18:52.334Z,0.88
2023-03-26T22:21:18.650Z,0.78
2023-03-26T22:23:44.950Z,0.83
2023-03-26T22:26:11.262Z,0.84
2023-03-26T22:28:37.609Z,0.83
2023-03-26T22:31:03.952Z,0.83
2023-03-26T22:33:30.312Z,0.67
2023-03-26T22:35:56.656Z,0.71
2023-03-26T22:38:22.998Z,0.61
2023-03-26T22:40:49.347Z,0.55
2023-03-26T22:43:15.670Z,0.78
2023-03-26T22:45:41.991Z,0.70
2023-03-26T22:48:08.423Z,0.60
2023-03-26T22:50:34.761Z,0.58
2023-03-26T22:53:01.091Z,0.61
2023-03-26T22:55:28.956Z,0.59
2023-03-26T22:57:56.128Z,0.64
2023-03-26T23:00:22.436Z,0.62
2023-03-26T23:02:48.893Z,0.63
2023-03-26T23:05:15.296Z,0.65
2023-03-26T23:07:41.611Z,0.72
2023-03-26T23:10:07.932Z,0.70
2023-03-26T23:12:34.269Z,0.72
2023-03-26T23:15:00.569Z,0.72
2023-03-26T23:17:26.968Z,0.64
2023-03-26T23:19:53.298Z,0.70
2023-03-26T23:22:19.618Z,0.51
2023-03-26T23:24:45.940Z,0.46
2023-03-26T23:27:12.254Z,0.54
2023-03-26T23:29:38.551Z,0.47
2023-03-26T23:32:24.484Z,0.58
2023-03-26T23:34:51.942Z,0.68
2023-03-26T23:37:18.866Z,0.62
2023-03-26T23:39:45.161Z,0.65
2023-03-26T23:42:11.483Z,0.53
2023-03-26T23:44:37.790Z,0.68
2023-03-26T23:47:04.090Z,0.68
2023-03-26T23:49:30.404Z,0.70
2023-03-26T23:51:56.757Z,0.79
2023-03-26T23:54:23.085Z,0.74
2023-03-26T23:56:49.459Z,0.72
2023-03-26T23:59:15.814Z,0.71
